Basel, France

8:53 AM CET on January 24, 2017 (GMT +0100)
Basle-Mulhouse | | Change Station

Elev 889 ft 47.60 °N, 7.52 °E | Updated 23 minutes ago

Fog
Fog
19 °F
Feels Like 14 °F
N
4
Wind Variable Wind from Variable

Today
High -- | Low -- °F
--% Chance of Precip.
Yesterday
High -- | Low -- °F
Precip. -- in
Pressure 30.30 in
Visibility 1.2 miles
Clouds Mostly Cloudy 500 ft
Overcast 900 ft
Windchill 14 °F
Dew Point 18 °F
Humidity 93%
Rainfall 0.00 in
Snow Depth Not available.
8:05 AM 5:18 PM
Waning Crescent, 13% visible
METAR LFSB 240730Z VRB03KT 1900 BR BKN005 OVC009 M07/M08 Q1026 TEMPO 0800 FZFG
Pressure 30.30 in
Visibility 1.2 miles
Clouds Mostly Cloudy 500 ft
Overcast 900 ft
Windchill 14 °F
Dew Point 18 °F
Humidity 93%
Rainfall 0.00 in
Snow Depth Not available.
8:05 AM 5:18 PM
Waning Crescent, 13% visible
METAR LFSB 240730Z VRB03KT 1900 BR BKN005 OVC009 M07/M08 Q1026 TEMPO 0800 FZFG

Get Your Daily Forecast Email!

Thanks for signing up!

Be on the lookout for a verification email in your inbox.

You'll start receiving the daily forecast at 8 AM.

×

10-Day Weather Forecast

×

Almanac

Astronomy

Jan. 24, 2017 Rise Set
Actual Time
Civil Twilight
Nautical Twilight
Astronomical Twilight
Moon
Length of Visible Light
Length of Day
Tomorrow will be .
, % of the Moon is Illuminated

Today's Extremes

Country Highs Country Lows

Community

WunderPhotos

Upload Photos

1,962,540 photos uploaded!

WunderBlog® & News

Nearby

Air Quality

  Air Quality AQ Index Pollutant
Not available.

Snow Depth

Station Depth Elevation

Earthquake Activity

City Distance Mag. Time & Date
Minimum magnitude displayed is 2.5.

Coastal Water Temperatures

Place Temperature

Stations

Nearby Weather Stations

Station Location Temp. Windchill Dew Point Humidity Wind Precip. Elev Updated Type